Time;durP1;ratioP1;P1;durP2;ratioP2;P2;SDS_P1;SDS_P2;PMS_P1;PMS_P2;Temp;Humidity;BMP_temperature;BMP_pressure;BME280_temperature;BME280_humidity;BME280_pressure;Samples;Min_cycle;Max_cycle;Signal;HPM_P1;HPM_P2
2022/05/18 00:02:13;;;;;;;9.65;7.88;;;;;;;;;;4937308;29;20044;-74
2022/05/18 00:04:43;;;;;;;10.75;8.07;;;;;;;;;;4937577;29;20052;-74
2022/05/18 00:07:11;;;;;;;10.23;8.90;;;;;;;;;;4937619;29;20462;-73
2022/05/18 00:09:44;;;;;;;10.23;8.52;;;;;;;;;;4937209;29;20043;-73
2022/05/18 00:12:12;;;;;;;13.07;10.00;;;;;;;;;;4937092;29;20122;-73
2022/05/18 00:15:04;;;;;;;12.70;9.13;;;;;;;;;;4937584;29;20042;-73
2022/05/18 00:17:34;;;;;;;10.73;8.70;;;;;;;;;;4936665;29;20110;-73
2022/05/18 00:20:06;;;;;;;10.95;9.05;;;;;;;;;;4937215;29;20095;-73
2022/05/18 00:22:49;;;;;;;10.68;9.18;;;;;;;;;;4937185;29;20043;-73
2022/05/18 00:25:18;;;;;;;11.00;9.02;;;;;;;;;;4936837;29;20083;-73
2022/05/18 00:28:12;;;;;;;14.27;10.07;;;;;;;;;;4920541;29;20035;-73
2022/05/18 00:30:41;;;;;;;12.32;10.20;;;;;;;;;;4936881;29;20507;-73
2022/05/18 00:33:10;;;;;;;11.35;10.15;;;;;;;;;;4919488;29;20067;-73
2022/05/18 00:35:41;;;;;;;13.30;11.15;;;;;;;;;;4936977;29;20166;-72
2022/05/18 00:38:11;;;;;;;15.60;11.30;;;;;;;;;;4936650;29;20201;-73
2022/05/18 00:40:46;;;;;;;13.10;11.70;;;;;;;;;;4936817;29;20035;-73
2022/05/18 00:43:19;;;;;;;13.68;11.45;;;;;;;;;;4936723;29;20047;-73
2022/05/18 00:45:50;;;;;;;15.48;12.90;;;;;;;;;;4936980;29;20115;-73
2022/05/18 00:48:25;;;;;;;16.63;12.60;;;;;;;;;;4936620;29;20517;-73
2022/05/18 00:50:53;;;;;;;16.35;11.65;;;;;;;;;;4936878;29;20549;-73
2022/05/18 00:53:35;;;;;;;16.17;12.45;;;;;;;;;;4936531;29;20067;-73
2022/05/18 00:56:11;;;;;;;14.27;12.77;;;;;;;;;;4936844;29;20091;-73
2022/05/18 00:59:00;;;;;;;14.95;12.70;;;;;;;;;;4936401;29;20538;-73
2022/05/18 01:01:53;;;;;;;14.85;13.23;;;;;;;;;;4936710;29;20407;-73
2022/05/18 01:04:46;;;;;;;15.90;13.88;;;;;;;;;;4936457;29;20119;-73
2022/05/18 01:07:17;;;;;;;14.38;12.88;;;;;;;;;;4936702;29;20095;-74
2022/05/18 01:09:47;;;;;;;14.55;12.65;;;;;;;;;;4936082;29;20495;-73
2022/05/18 01:12:21;;;;;;;14.27;12.55;;;;;;;;;;4936225;29;20443;-73
2022/05/18 01:15:01;;;;;;;15.68;12.90;;;;;;;;;;4936401;29;20047;-73
2022/05/18 01:17:35;;;;;;;15.60;12.93;;;;;;;;;;4936477;29;20039;-73
2022/05/18 01:20:09;;;;;;;14.02;12.50;;;;;;;;;;4936158;29;20091;-73
2022/05/18 01:22:53;;;;;;;14.80;12.83;;;;;;;;;;4936687;29;20044;-73
2022/05/18 01:25:38;;;;;;;14.43;13.02;;;;;;;;;;4936239;29;20048;-73
2022/05/18 01:28:11;;;;;;;16.42;13.45;;;;;;;;;;4935880;29;20035;-73
2022/05/18 01:30:42;;;;;;;15.05;13.43;;;;;;;;;;4935858;29;20451;-73
2022/05/18 01:33:15;;;;;;;15.00;13.13;;;;;;;;;;4936015;29;20051;-73
2022/05/18 01:35:43;;;;;;;14.43;12.93;;;;;;;;;;4936179;29;20064;-73
2022/05/18 01:38:35;;;;;;;15.38;13.63;;;;;;;;;;4936173;29;20431;-73
2022/05/18 01:41:28;;;;;;;15.18;13.57;;;;;;;;;;4919211;29;20048;-73
2022/05/18 01:44:20;;;;;;;16.90;14.50;;;;;;;;;;4936050;29;20050;-73
2022/05/18 01:46:50;;;;;;;17.08;14.13;;;;;;;;;;4936042;29;20074;-73
2022/05/18 01:49:20;;;;;;;17.75;14.10;;;;;;;;;;4936301;29;20102;-73
2022/05/18 01:51:51;;;;;;;16.60;13.07;;;;;;;;;;4935902;29;20044;-72
2022/05/18 01:54:21;;;;;;;14.90;12.75;;;;;;;;;;4918851;29;20091;-73
2022/05/18 01:56:50;;;;;;;16.00;13.18;;;;;;;;;;4935669;29;20035;-73
2022/05/18 01:59:19;;;;;;;15.63;13.38;;;;;;;;;;4935689;29;20043;-73
2022/05/18 02:01:49;;;;;;;15.55;13.88;;;;;;;;;;4935830;29;20043;-73
2022/05/18 02:04:17;;;;;;;16.30;13.25;;;;;;;;;;4935962;29;20039;-73
2022/05/18 02:06:47;;;;;;;20.20;14.70;;;;;;;;;;4935539;29;20044;-73
2022/05/18 02:09:19;;;;;;;16.17;14.45;;;;;;;;;;4935697;29;20484;-73
2022/05/18 02:11:51;;;;;;;16.13;14.43;;;;;;;;;;4936132;29;20414;-73
2022/05/18 02:14:22;;;;;;;18.67;14.95;;;;;;;;;;4935631;29;20104;-73
2022/05/18 02:16:51;;;;;;;18.05;14.25;;;;;;;;;;4935926;29;20071;-73
2022/05/18 02:19:21;;;;;;;18.50;15.05;;;;;;;;;;4935745;29;20035;-73
2022/05/18 02:21:56;;;;;;;18.40;15.02;;;;;;;;;;4935464;29;20046;-73
2022/05/18 02:24:49;;;;;;;17.92;14.70;;;;;;;;;;4935427;29;20127;-73
2022/05/18 02:27:17;;;;;;;18.27;15.25;;;;;;;;;;4897807;29;20044;-73
2022/05/18 02:29:47;;;;;;;16.13;14.48;;;;;;;;;;4897608;29;20045;-73
2022/05/18 02:32:20;;;;;;;16.75;14.95;;;;;;;;;;4897366;29;20116;-73
2022/05/18 02:34:53;;;;;;;18.35;14.30;;;;;;;;;;4897970;29;20044;-73
2022/05/18 02:37:24;;;;;;;14.90;12.85;;;;;;;;;;4898183;29;20048;-73
2022/05/18 02:39:52;;;;;;;16.52;13.77;;;;;;;;;;4899281;29;20047;-73
2022/05/18 02:42:19;;;;;;;14.40;12.10;;;;;;;;;;4900575;29;20484;-73
2022/05/18 02:44:48;;;;;;;12.82;11.52;;;;;;;;;;4901449;29;20044;-73
2022/05/18 02:47:20;;;;;;;13.93;11.23;;;;;;;;;;4899688;29;20044;-73
2022/05/18 02:49:51;;;;;;;12.85;11.05;;;;;;;;;;4901039;29;20052;-73
2022/05/18 02:52:19;;;;;;;12.73;10.70;;;;;;;;;;4901147;29;20068;-73
2022/05/18 02:57:34;;;;;;;12.05;9.43;;;;;;;;;;4900224;29;20075;-73
2022/05/18 03:00:04;;;;;;;12.80;10.48;;;;;;;;;;4900636;29;20041;-73
2022/05/18 03:02:33;;;;;;;9.40;8.40;;;;;;;;;;4900956;29;20403;-73
2022/05/18 03:05:01;;;;;;;10.90;8.43;;;;;;;;;;4900275;29;20059;-73
2022/05/18 03:10:30;;;;;;;9.93;8.93;;;;;;;;;;4900691;29;20041;-73
2022/05/18 03:13:29;;;;;;;11.10;7.53;;;;;;;;;;4900642;29;20071;-73
2022/05/18 03:15:57;;;;;;;8.77;6.85;;;;;;;;;;4899929;29;20045;-73
2022/05/18 03:18:58;;;;;;;10.32;7.78;;;;;;;;;;4899946;29;20052;-74
2022/05/18 03:24:37;;;;;;;7.68;6.88;;;;;;;;;;4899970;29;20057;-74
2022/05/18 03:27:30;;;;;;;12.25;7.40;;;;;;;;;;4900547;29;20072;-74
2022/05/18 03:34:00;;;;;;;8.43;7.05;;;;;;;;;;4900146;29;20135;-74
2022/05/18 03:36:39;;;;;;;9.43;8.23;;;;;;;;;;4899343;29;20120;-72
2022/05/18 03:39:32;;;;;;;8.38;7.57;;;;;;;;;;4900155;29;20044;-72
2022/05/18 03:42:07;;;;;;;20.73;13.90;;;;;;;;;;4900182;29;20077;-75
2022/05/18 03:44:34;;;;;;;11.27;9.48;;;;;;;;;;4899982;29;20045;-72
2022/05/18 03:47:06;;;;;;;13.02;10.68;;;;;;;;;;4899966;29;20052;-72
2022/05/18 03:49:43;;;;;;;9.88;8.00;;;;;;;;;;4900059;29;20048;-72
2022/05/18 03:52:10;;;;;;;8.05;6.75;;;;;;;;;;4899129;29;20137;-72
2022/05/18 03:54:42;;;;;;;7.03;3.83;;;;;;;;;;4899501;29;20044;-74
2022/05/18 03:57:14;;;;;;;3.42;2.33;;;;;;;;;;4899733;29;20416;-77
2022/05/18 03:59:41;;;;;;;4.15;1.98;;;;;;;;;;4898727;29;20044;-78
2022/05/18 04:02:12;;;;;;;4.85;2.05;;;;;;;;;;4899223;29;20055;-81
2022/05/18 04:04:48;;;;;;;2.60;1.90;;;;;;;;;;4899530;29;20072;-78
2022/05/18 04:07:16;;;;;;;4.22;2.28;;;;;;;;;;4899542;29;20052;-77
2022/05/18 04:09:47;;;;;;;4.82;2.40;;;;;;;;;;4899508;29;20407;-74
2022/05/18 04:12:16;;;;;;;5.20;2.50;;;;;;;;;;4899617;29;20480;-78
2022/05/18 04:14:45;;;;;;;8.85;3.90;;;;;;;;;;4899513;29;20047;-76
2022/05/18 04:17:13;;;;;;;6.85;3.20;;;;;;;;;;4899324;29;20116;-77
2022/05/18 04:19:46;;;;;;;5.40;2.95;;;;;;;;;;4899110;29;20045;-79
2022/05/18 04:22:13;;;;;;;7.53;3.60;;;;;;;;;;4899295;29;20444;-77
2022/05/18 04:24:41;;;;;;;6.05;3.20;;;;;;;;;;4900109;29;20076;-75
2022/05/18 04:27:10;;;;;;;5.15;2.80;;;;;;;;;;4936917;29;20043;-75
2022/05/18 04:29:38;;;;;;;3.63;3.17;;;;;;;;;;4935257;29;20063;-78
2022/05/18 04:32:06;;;;;;;4.18;2.97;;;;;;;;;;4936020;29;20391;-74
2022/05/18 04:34:35;;;;;;;7.03;3.60;;;;;;;;;;4936617;29;20087;-75
2022/05/18 04:37:02;;;;;;;6.80;4.80;;;;;;;;;;4936565;29;20059;-76
2022/05/18 04:39:31;;;;;;;7.15;4.10;;;;;;;;;;4936608;29;20447;-76
2022/05/18 04:42:04;;;;;;;5.88;4.15;;;;;;;;;;4937077;29;20042;-77
2022/05/18 04:44:31;;;;;;;6.03;4.38;;;;;;;;;;4936690;29;20047;-77
2022/05/18 04:47:00;;;;;;;6.40;4.47;;;;;;;;;;4936579;29;20047;-76
2022/05/18 04:49:30;;;;;;;6.60;4.40;;;;;;;;;;4936454;29;20499;-76
2022/05/18 04:52:01;;;;;;;5.28;3.92;;;;;;;;;;4936926;29;20080;-76
2022/05/18 04:54:31;;;;;;;4.72;4.00;;;;;;;;;;4936513;29;20482;-75
2022/05/18 04:57:04;;;;;;;5.97;3.50;;;;;;;;;;4919733;29;20403;-76
2022/05/18 04:59:32;;;;;;;6.57;3.70;;;;;;;;;;4936456;29;20063;-77
2022/05/18 05:02:04;;;;;;;8.93;4.00;;;;;;;;;;4919287;29;20047;-77
2022/05/18 05:04:58;;;;;;;6.80;3.67;;;;;;;;;;4935350;29;20494;-75
2022/05/18 05:07:31;;;;;;;6.75;4.15;;;;;;;;;;4936678;29;20050;-77
2022/05/18 05:09:59;;;;;;;5.88;4.50;;;;;;;;;;4935260;29;20106;-77
2022/05/18 05:12:32;;;;;;;5.80;4.60;;;;;;;;;;4936414;29;20050;-78
2022/05/18 05:15:09;;;;;;;6.32;4.70;;;;;;;;;;4936116;29;20039;-76
2022/05/18 05:17:37;;;;;;;6.35;4.20;;;;;;;;;;4919274;29;20143;-79
2022/05/18 05:20:06;;;;;;;5.57;3.70;;;;;;;;;;4936507;29;20071;-77
2022/05/18 05:22:47;;;;;;;5.50;3.92;;;;;;;;;;4936475;29;20399;-77
2022/05/18 05:25:15;;;;;;;6.30;4.28;;;;;;;;;;4936213;29;20062;-77
2022/05/18 05:28:09;;;;;;;5.25;3.65;;;;;;;;;;4936597;29;20043;-77
2022/05/18 05:30:37;;;;;;;8.10;3.63;;;;;;;;;;4936637;29;20055;-76
2022/05/18 05:33:07;;;;;;;6.72;4.15;;;;;;;;;;4936286;29;20062;-78
2022/05/18 05:35:43;;;;;;;5.90;3.72;;;;;;;;;;4936759;29;20036;-77
2022/05/18 05:38:12;;;;;;;6.57;3.83;;;;;;;;;;4936240;29;20051;-77
2022/05/18 05:40:41;;;;;;;4.88;3.50;;;;;;;;;;4936034;29;20405;-77
2022/05/18 05:43:15;;;;;;;4.35;3.60;;;;;;;;;;4936374;29;20501;-77
2022/05/18 05:45:54;;;;;;;4.45;3.05;;;;;;;;;;4936062;29;20383;-77
2022/05/18 05:48:25;;;;;;;4.65;3.17;;;;;;;;;;4936174;29;20075;-76
2022/05/18 05:51:19;;;;;;;6.50;3.17;;;;;;;;;;4918865;29;20106;-76
2022/05/18 05:54:12;;;;;;;4.20;2.75;;;;;;;;;;4919042;29;20443;-78
2022/05/18 05:56:40;;;;;;;3.90;2.42;;;;;;;;;;4936097;29;20048;-76
2022/05/18 05:59:16;;;;;;;4.03;2.75;;;;;;;;;;4935478;29;20047;-77
2022/05/18 06:01:50;;;;;;;5.47;3.03;;;;;;;;;;4919721;29;20068;-78
2022/05/18 06:04:25;;;;;;;5.97;3.00;;;;;;;;;;4935870;29;20043;-79
2022/05/18 06:06:53;;;;;;;4.07;2.70;;;;;;;;;;4935982;29;20051;-77
2022/05/18 06:09:20;;;;;;;4.25;2.75;;;;;;;;;;4935559;29;20406;-79
2022/05/18 06:11:51;;;;;;;6.25;3.08;;;;;;;;;;4935665;29;20079;-77
2022/05/18 06:14:25;;;;;;;5.05;2.65;;;;;;;;;;4936551;29;20098;-79
2022/05/18 06:16:57;;;;;;;4.68;2.42;;;;;;;;;;4922527;29;20450;-78
2022/05/18 06:19:31;;;;;;;8.30;2.60;;;;;;;;;;4939518;29;20039;-78
2022/05/18 06:22:25;;;;;;;5.53;2.70;;;;;;;;;;4939591;29;20068;-79
2022/05/18 06:24:53;;;;;;;4.00;2.30;;;;;;;;;;4939168;29;20043;-79
2022/05/18 06:27:49;;;;;;;4.85;2.45;;;;;;;;;;4938039;29;20048;-78
2022/05/18 06:30:17;;;;;;;4.55;2.65;;;;;;;;;;4938108;29;20383;-78
2022/05/18 06:32:45;;;;;;;4.15;2.50;;;;;;;;;;4921085;29;20071;-78
2022/05/18 06:35:13;;;;;;;5.55;2.28;;;;;;;;;;4937924;29;20047;-77
2022/05/18 06:37:44;;;;;;;4.75;2.50;;;;;;;;;;4937732;29;20154;-78
2022/05/18 06:40:17;;;;;;;7.88;2.30;;;;;;;;;;4938233;29;20044;-79
2022/05/18 06:42:46;;;;;;;5.07;2.38;;;;;;;;;;4937948;29;20040;-78
2022/05/18 06:45:19;;;;;;;4.25;2.30;;;;;;;;;;4937801;29;20056;-78
2022/05/18 06:48:00;;;;;;;3.78;2.40;;;;;;;;;;4937836;29;20502;-78
2022/05/18 06:50:31;;;;;;;4.35;2.05;;;;;;;;;;4938354;29;20431;-79
2022/05/18 06:53:04;;;;;;;4.70;2.30;;;;;;;;;;4937943;29;20044;-78
2022/05/18 06:55:33;;;;;;;4.80;2.70;;;;;;;;;;4920696;29;20071;-80
2022/05/18 06:58:27;;;;;;;6.10;3.15;;;;;;;;;;4920469;29;20123;-79
2022/05/18 07:01:01;;;;;;;4.55;2.75;;;;;;;;;;4920813;29;20048;-80
2022/05/18 07:03:32;;;;;;;5.35;2.40;;;;;;;;;;4937518;29;20099;-79
2022/05/18 07:06:04;;;;;;;7.38;2.67;;;;;;;;;;4937562;29;20138;-77
2022/05/18 07:08:36;;;;;;;5.93;3.30;;;;;;;;;;4937927;29;20043;-78
2022/05/18 07:11:04;;;;;;;7.25;3.20;;;;;;;;;;4937681;29;20047;-79
2022/05/18 07:13:38;;;;;;;4.97;3.05;;;;;;;;;;4937263;29;20451;-80
2022/05/18 07:16:22;;;;;;;5.93;2.90;;;;;;;;;;4920436;29;20429;-80
2022/05/18 07:18:50;;;;;;;6.30;3.00;;;;;;;;;;4941360;29;20047;-80
2022/05/18 07:21:43;;;;;;;3.75;2.67;;;;;;;;;;4943362;29;20481;-79
2022/05/18 07:24:10;;;;;;;4.05;2.45;;;;;;;;;;4937909;29;20054;-79
2022/05/18 07:30:22;;;;;;;3.50;2.53;;;;;;;;;;4921284;29;20402;-77
2022/05/18 07:33:18;;;;;;;4.35;2.60;;;;;;;;;;4938190;29;20052;-77
2022/05/18 07:35:47;;;;;;;8.00;2.88;;;;;;;;;;4938520;29;20039;-77
2022/05/18 07:38:19;;;;;;;4.93;2.58;;;;;;;;;;4938204;29;20050;-76
2022/05/18 07:41:08;;;;;;;6.15;2.97;;;;;;;;;;4938175;29;20126;-78
2022/05/18 07:43:38;;;;;;;5.00;2.75;;;;;;;;;;4938031;29;20050;-79
2022/05/18 07:46:10;;;;;;;5.63;2.95;;;;;;;;;;4938285;29;20039;-80
2022/05/18 07:48:40;;;;;;;5.47;2.70;;;;;;;;;;4937968;29;20048;-78
2022/05/18 07:51:10;;;;;;;5.72;2.67;;;;;;;;;;4937607;29;20498;-76
2022/05/18 07:53:43;;;;;;;4.68;2.75;;;;;;;;;;4938065;29;20147;-78
2022/05/18 07:56:12;;;;;;;5.72;2.90;;;;;;;;;;4938572;29;20051;-76
2022/05/18 07:58:42;;;;;;;4.72;2.65;;;;;;;;;;4937648;29;20122;-79
2022/05/18 08:01:20;;;;;;;7.45;2.80;;;;;;;;;;4937921;29;20040;-78
2022/05/18 08:03:50;;;;;;;4.22;2.20;;;;;;;;;;4937923;29;20127;-77
2022/05/18 08:06:21;;;;;;;6.88;2.40;;;;;;;;;;4937531;29;20053;-80
2022/05/18 08:08:55;;;;;;;8.00;2.83;;;;;;;;;;4937969;29;20126;-78
2022/05/18 08:17:23;;;;;;;6.22;2.45;;;;;;;;;;4916484;29;20499;-79
2022/05/18 08:23:20;;;;;;;5.13;2.40;;;;;;;;;;4937235;29;20039;-78
2022/05/18 08:25:48;;;;;;;5.80;2.80;;;;;;;;;;4936403;29;20402;-77
2022/05/18 08:28:41;;;;;;;6.97;2.50;;;;;;;;;;4937344;29;20050;-78
2022/05/18 08:31:17;;;;;;;5.70;2.33;;;;;;;;;;4937337;29;20178;-77
2022/05/18 08:33:50;;;;;;;4.95;2.38;;;;;;;;;;4937231;29;20051;-77
2022/05/18 08:36:18;;;;;;;6.53;3.40;;;;;;;;;;4936860;29;20047;-77
2022/05/18 08:38:51;;;;;;;4.13;2.35;;;;;;;;;;4936599;29;20050;-77
2022/05/18 08:41:29;;;;;;;8.35;2.70;;;;;;;;;;4937287;29;20083;-78
2022/05/18 08:44:05;;;;;;;7.55;2.60;;;;;;;;;;4936681;29;20166;-78
2022/05/18 08:46:44;;;;;;;5.07;2.60;;;;;;;;;;4936985;29;20090;-76
2022/05/18 08:49:22;;;;;;;6.28;2.90;;;;;;;;;;4919767;29;20052;-78
2022/05/18 08:52:16;;;;;;;5.47;2.45;;;;;;;;;;4937232;29;20067;-76
2022/05/18 08:54:54;;;;;;;5.50;2.38;;;;;;;;;;4901111;29;20102;-77
2022/05/18 08:57:48;;;;;;;3.97;2.45;;;;;;;;;;4936332;29;20513;-77
2022/05/18 09:00:27;;;;;;;7.35;2.85;;;;;;;;;;4936664;29;20039;-76
2022/05/18 09:03:18;;;;;;;5.18;2.53;;;;;;;;;;4936665;29;20040;-76
2022/05/18 09:05:52;;;;;;;6.72;2.80;;;;;;;;;;4936735;29;20043;-76
2022/05/18 09:08:36;;;;;;;4.40;2.40;;;;;;;;;;4937102;29;20043;-77
2022/05/18 09:11:26;;;;;;;4.47;2.20;;;;;;;;;;4919242;29;20054;-77
2022/05/18 09:13:56;;;;;;;5.53;2.03;;;;;;;;;;4936903;29;20082;-77
2022/05/18 09:16:31;;;;;;;5.40;2.50;;;;;;;;;;4936518;29;20048;-77
2022/05/18 09:19:20;;;;;;;6.22;2.65;;;;;;;;;;4936909;29;20035;-77
2022/05/18 09:21:55;;;;;;;5.90;2.35;;;;;;;;;;4919632;29;20038;-78
2022/05/18 09:24:31;;;;;;;3.40;2.03;;;;;;;;;;4919332;29;20051;-75
2022/05/18 09:27:02;;;;;;;5.78;2.00;;;;;;;;;;4936049;29;20074;-77
2022/05/18 09:29:44;;;;;;;7.05;2.22;;;;;;;;;;4936631;29;20487;-77
2022/05/18 09:32:25;;;;;;;5.90;2.20;;;;;;;;;;4936130;29;20111;-78
2022/05/18 09:35:14;;;;;;;7.20;3.78;;;;;;;;;;4919097;29;20551;-77
2022/05/18 09:37:56;;;;;;;5.57;2.67;;;;;;;;;;4918969;29;20059;-77
2022/05/18 09:40:26;;;;;;;7.35;2.78;;;;;;;;;;4936636;29;20412;-77
2022/05/18 09:43:13;;;;;;;6.15;2.20;;;;;;;;;;4936442;29;20078;-78
2022/05/18 09:45:57;;;;;;;4.55;2.10;;;;;;;;;;4935971;29;20047;-77
2022/05/18 09:48:35;;;;;;;6.00;2.00;;;;;;;;;;4937009;29;20090;-77
2022/05/18 09:51:14;;;;;;;3.75;2.13;;;;;;;;;;4940039;29;20052;-77
2022/05/18 09:53:42;;;;;;;7.00;2.33;;;;;;;;;;4940261;29;20495;-79
2022/05/18 09:56:20;;;;;;;6.03;2.33;;;;;;;;;;4940132;29;20483;-78
2022/05/18 09:58:59;;;;;;;8.07;2.60;;;;;;;;;;4941689;29;20039;-77
2022/05/18 10:07:30;;;;;;;5.97;3.58;;;;;;;;;;4922810;29;20494;-78
2022/05/18 10:10:12;;;;;;;9.85;2.60;;;;;;;;;;4939721;29;20040;-78
2022/05/18 10:12:59;;;;;;;3.53;2.10;;;;;;;;;;4939675;29;20070;-76
2022/05/18 10:15:32;;;;;;;7.57;2.25;;;;;;;;;;4922652;29;20466;-78
2022/05/18 10:18:11;;;;;;;6.25;2.50;;;;;;;;;;4922504;29;20127;-79
2022/05/18 10:21:06;;;;;;;4.55;2.42;;;;;;;;;;4939988;29;20051;-78
2022/05/18 10:24:01;;;;;;;6.20;2.85;;;;;;;;;;4939195;29;20048;-78
2022/05/18 10:26:38;;;;;;;27.65;2.80;;;;;;;;;;4939417;29;20609;-78
2022/05/18 10:29:15;;;;;;;5.85;2.80;;;;;;;;;;4939346;29;20090;-78
2022/05/18 10:32:01;;;;;;;3.75;2.10;;;;;;;;;;4939434;29;20044;-77
2022/05/18 10:34:34;;;;;;;;;;;;;;;;;;4939556;29;20483;-77
2022/05/18 10:37:10;;;;;;;5.15;2.65;;;;;;;;;;4939629;29;20369;-78
2022/05/18 10:39:47;;;;;;;9.18;2.80;;;;;;;;;;4922214;29;20043;-78
2022/05/18 10:42:16;;;;;;;7.57;2.58;;;;;;;;;;4938972;29;20044;-77
2022/05/18 10:45:08;;;;;;;8.13;2.65;;;;;;;;;;4939278;29;20051;-76
2022/05/18 10:51:26;;;;;;;7.22;2.72;;;;;;;;;;4939180;29;20447;-76
2022/05/18 10:54:07;;;;;;;5.65;2.40;;;;;;;;;;4938747;29;20048;-76
2022/05/18 10:56:42;;;;;;;5.13;2.60;;;;;;;;;;4938765;29;20039;-76
2022/05/18 10:59:12;;;;;;;7.57;2.42;;;;;;;;;;4938543;29;20402;-77
2022/05/18 11:02:02;;;;;;;10.18;3.60;;;;;;;;;;4938014;29;20046;-76
2022/05/18 11:04:40;;;;;;;6.47;2.50;;;;;;;;;;4938431;29;20463;-76
2022/05/18 11:07:16;;;;;;;5.13;2.45;;;;;;;;;;4938646;29;20052;-76
2022/05/18 11:09:49;;;;;;;8.40;2.60;;;;;;;;;;4938692;29;20047;-77
2022/05/18 11:12:16;;;;;;;4.75;2.42;;;;;;;;;;4938199;29;20051;-76
2022/05/18 11:15:03;;;;;;;5.90;2.28;;;;;;;;;;4938481;29;20044;-76
2022/05/18 11:17:54;;;;;;;6.68;2.22;;;;;;;;;;4938892;29;20035;-77
2022/05/18 11:20:45;;;;;;;7.20;2.40;;;;;;;;;;4938297;29;20087;-77
2022/05/18 11:23:38;;;;;;;8.82;3.33;;;;;;;;;;4938771;29;20044;-77
2022/05/18 11:26:15;;;;;;;5.05;2.75;;;;;;;;;;4937649;29;20060;-75
2022/05/18 11:29:34;;;;;;;4.65;2.50;;;;;;;;;;4937760;29;20407;-75
2022/05/18 11:32:28;;;;;;;6.63;2.90;;;;;;;;;;4938034;29;20047;-75
2022/05/18 11:38:36;;;;;;;6.88;2.60;;;;;;;;;;4937968;29;20043;-78
2022/05/18 11:41:12;;;;;;;4.95;2.40;;;;;;;;;;4937338;29;20079;-78
2022/05/18 11:44:02;;;;;;;4.20;2.13;;;;;;;;;;4937865;29;20442;-77
2022/05/18 11:46:55;;;;;;;5.25;2.08;;;;;;;;;;4937894;29;20057;-78
2022/05/18 11:49:25;;;;;;;5.47;2.72;;;;;;;;;;4937888;29;20076;-77
2022/05/18 11:56:15;;;;;;;9.27;3.97;;;;;;;;;;4936809;29;20057;-77
2022/05/18 11:59:12;;;;;;;5.80;2.65;;;;;;;;;;4921549;29;20107;-76
2022/05/18 12:02:00;;;;;;;10.32;2.65;;;;;;;;;;4937409;29;20044;-77
2022/05/18 12:04:41;;;;;;;8.80;2.65;;;;;;;;;;4938103;29;20071;-77
2022/05/18 12:07:34;;;;;;;8.02;2.90;;;;;;;;;;4937974;29;20099;-79
2022/05/18 12:10:20;;;;;;;5.57;2.33;;;;;;;;;;4937840;29;20058;-77
2022/05/18 12:13:10;;;;;;;6.00;2.05;;;;;;;;;;4919735;29;20054;-77
2022/05/18 12:15:44;;;;;;;5.82;2.30;;;;;;;;;;4937693;29;20051;-76
2022/05/18 12:18:25;;;;;;;7.95;2.35;;;;;;;;;;4920118;29;20051;-76
2022/05/18 12:21:16;;;;;;;6.35;2.83;;;;;;;;;;4920657;29;20046;-77
2022/05/18 12:23:55;;;;;;;6.40;2.65;;;;;;;;;;4937559;29;20039;-77
2022/05/18 12:26:30;;;;;;;5.68;2.38;;;;;;;;;;4937017;29;20059;-77
2022/05/18 12:29:04;;;;;;;6.50;2.35;;;;;;;;;;4937020;29;20075;-77
2022/05/18 12:31:57;;;;;;;3.67;2.40;;;;;;;;;;4920162;29;20043;-76
2022/05/18 12:34:36;;;;;;;5.43;2.00;;;;;;;;;;4920276;29;20562;-77
2022/05/18 12:37:24;;;;;;;5.75;2.80;;;;;;;;;;4937400;29;20039;-76
2022/05/18 12:40:20;;;;;;;5.32;2.03;;;;;;;;;;4920005;29;20092;-76
2022/05/18 12:42:50;;;;;;;4.93;2.30;;;;;;;;;;4936674;29;20056;-77
2022/05/18 12:45:41;;;;;;;9.15;2.08;;;;;;;;;;4936919;29;20119;-77
2022/05/18 12:48:12;;;;;;;6.18;1.90;;;;;;;;;;4937253;29;20044;-76
2022/05/18 12:54:23;;;;;;;6.63;2.30;;;;;;;;;;4844914;29;20049;-76
2022/05/18 12:57:16;;;;;;;7.90;2.15;;;;;;;;;;4859426;29;20049;-75
2022/05/18 13:00:09;;;;;;;5.03;1.90;;;;;;;;;;4860171;29;20062;-76
2022/05/18 13:03:07;;;;;;;5.70;2.00;;;;;;;;;;4860060;29;20139;-77
2022/05/18 13:05:44;;;;;;;6.07;2.00;;;;;;;;;;4844164;29;20081;-76
2022/05/18 13:08:18;;;;;;;8.82;3.70;;;;;;;;;;4859462;29;20049;-78
2022/05/18 13:11:07;;;;;;;5.65;1.92;;;;;;;;;;4844555;29;20425;-78
2022/05/18 13:13:56;;;;;;;7.03;2.05;;;;;;;;;;4857201;29;20134;-77
2022/05/18 13:16:56;;;;;;;6.25;2.00;;;;;;;;;;4859377;29;20129;-77
2022/05/18 13:19:31;;;;;;;5.20;2.30;;;;;;;;;;4858922;29;20451;-76
2022/05/18 13:22:35;;;;;;;8.00;3.53;;;;;;;;;;4843749;29;20212;-76
2022/05/18 13:25:04;;;;;;;9.35;3.78;;;;;;;;;;4858312;29;20073;-75
2022/05/18 13:27:56;;;;;;;7.93;3.40;;;;;;;;;;4858244;29;20048;-75
2022/05/18 13:30:47;;;;;;;16.23;6.63;;;;;;;;;;4851155;29;20449;-76
2022/05/18 13:33:49;;;;;;;5.82;3.13;;;;;;;;;;4898382;29;20160;-75
2022/05/18 13:36:31;;;;;;;7.05;2.10;;;;;;;;;;4897761;29;20077;-75
2022/05/18 13:39:07;;;;;;;8.98;2.15;;;;;;;;;;4898268;29;20412;-76
2022/05/18 13:41:41;;;;;;;3.45;2.20;;;;;;;;;;4898855;29;20115;-76
2022/05/18 13:44:11;;;;;;;5.10;2.17;;;;;;;;;;4898048;29;20075;-76
2022/05/18 13:46:41;;;;;;;5.75;2.20;;;;;;;;;;4897990;29;20480;-75
2022/05/18 13:49:14;;;;;;;6.82;2.53;;;;;;;;;;4898002;29;20037;-76
2022/05/18 13:51:44;;;;;;;4.78;2.78;;;;;;;;;;4912697;29;20044;-76
2022/05/18 13:54:20;;;;;;;6.78;2.60;;;;;;;;;;4917096;29;20048;-77
2022/05/18 13:56:52;;;;;;;7.75;2.00;;;;;;;;;;4917014;29;20127;-75
2022/05/18 13:59:29;;;;;;;6.88;1.98;;;;;;;;;;4916803;29;20103;-76
2022/05/18 14:02:15;;;;;;;5.65;2.22;;;;;;;;;;4916254;29;20045;-74
2022/05/18 14:04:56;;;;;;;7.10;2.38;;;;;;;;;;4916806;29;20050;-75
2022/05/18 14:07:27;;;;;;;9.27;2.17;;;;;;;;;;4900220;29;20044;-77
2022/05/18 14:10:17;;;;;;;10.52;2.88;;;;;;;;;;4897594;29;20096;-75
2022/05/18 14:12:55;;;;;;;7.18;2.58;;;;;;;;;;4911957;29;20056;-75
2022/05/18 14:15:29;;;;;;;8.60;2.40;;;;;;;;;;4897692;29;20515;-75
2022/05/18 14:18:06;;;;;;;5.70;2.35;;;;;;;;;;4898017;29;20163;-76
2022/05/18 14:20:59;;;;;;;6.60;3.28;;;;;;;;;;4897954;29;20464;-75
2022/05/18 14:23:28;;;;;;;5.90;2.80;;;;;;;;;;4911917;29;20050;-76
2022/05/18 14:26:02;;;;;;;8.02;2.67;;;;;;;;;;4926362;29;20067;-77
2022/05/18 14:28:38;;;;;;;7.93;3.20;;;;;;;;;;4935437;29;20071;-77
2022/05/18 14:31:09;;;;;;;6.93;2.90;;;;;;;;;;4935510;29;20044;-76
2022/05/18 14:33:51;;;;;;;7.60;2.60;;;;;;;;;;4935363;29;20051;-80
2022/05/18 14:36:28;;;;;;;8.65;2.67;;;;;;;;;;4937832;29;20052;-86
2022/05/18 14:39:00;;;;;;;5.20;2.17;;;;;;;;;;4938968;29;20039;-83
2022/05/18 14:41:35;;;;;;;4.47;2.55;;;;;;;;;;4939082;29;20067;-82
2022/05/18 14:44:15;;;;;;;10.73;2.60;;;;;;;;;;4938506;29;20067;-84
2022/05/18 14:47:08;;;;;;;4.20;2.13;;;;;;;;;;4938668;29;20131;-83
2022/05/18 14:49:40;;;;;;;5.25;2.85;;;;;;;;;;4939077;29;20051;-83
2022/05/18 14:52:33;;;;;;;5.55;1.90;;;;;;;;;;4939030;29;20075;-82
2022/05/18 14:55:31;;;;;;;5.38;2.20;;;;;;;;;;4939995;29;20450;-82
2022/05/18 14:58:24;;;;;;;5.82;1.98;;;;;;;;;;4941042;29;20091;-84
2022/05/18 15:00:57;;;;;;;7.47;2.00;;;;;;;;;;4938879;29;20448;-83
2022/05/18 15:03:41;;;;;;;10.30;2.70;;;;;;;;;;4940844;29;20119;-83
2022/05/18 15:06:16;;;;;;;4.97;2.38;;;;;;;;;;4938792;29;20043;-82
2022/05/18 15:09:11;;;;;;;11.52;2.60;;;;;;;;;;4934624;29;20464;-85
2022/05/18 15:11:45;;;;;;;5.60;2.80;;;;;;;;;;4917189;29;20095;-83
2022/05/18 15:14:31;;;;;;;5.88;2.55;;;;;;;;;;4919486;29;20452;-83
2022/05/18 15:17:02;;;;;;;5.28;1.90;;;;;;;;;;4919667;29;20376;-84
2022/05/18 15:19:55;;;;;;;4.63;2.08;;;;;;;;;;4919480;29;20051;-83
2022/05/18 15:22:31;;;;;;;5.93;2.30;;;;;;;;;;4919312;29;20056;-83
2022/05/18 15:24:59;;;;;;;5.82;2.35;;;;;;;;;;4919237;29;20407;-82
2022/05/18 15:27:31;;;;;;;7.63;2.58;;;;;;;;;;4919099;29;20135;-84
2022/05/18 15:30:05;;;;;;;6.47;2.30;;;;;;;;;;4919488;29;20353;-83
2022/05/18 15:32:34;;;;;;;9.25;2.67;;;;;;;;;;4919450;29;20055;-85
2022/05/18 15:35:05;;;;;;;7.63;2.90;;;;;;;;;;4902107;29;20522;-85
2022/05/18 15:37:34;;;;;;;9.00;2.65;;;;;;;;;;4919172;29;20055;-85
2022/05/18 15:40:02;;;;;;;7.53;2.42;;;;;;;;;;4919324;29;20036;-85
2022/05/18 15:42:29;;;;;;;11.85;7.32;;;;;;;;;;4918983;29;20036;-84
2022/05/18 15:55:45;;;;;;;8.93;3.00;;;;;;;;;;4918987;29;20040;-85
2022/05/18 15:58:43;;;;;;;6.57;3.05;;;;;;;;;;4918684;29;20384;-84
2022/05/18 16:01:12;;;;;;;5.05;2.40;;;;;;;;;;4917928;29;20040;-84
2022/05/18 16:03:40;;;;;;;4.55;2.17;;;;;;;;;;4901718;29;20055;-83
2022/05/18 16:06:12;;;;;;;7.45;2.45;;;;;;;;;;4918509;29;20100;-84
2022/05/18 16:08:42;;;;;;;6.07;2.13;;;;;;;;;;4918433;29;20052;-84
2022/05/18 16:11:11;;;;;;;6.63;2.55;;;;;;;;;;4918395;29;20044;-82
2022/05/18 16:13:40;;;;;;;4.78;2.50;;;;;;;;;;4918379;29;20056;-84
2022/05/18 16:16:08;;;;;;;6.63;2.20;;;;;;;;;;4918326;29;20075;-84
2022/05/18 16:18:36;;;;;;;4.70;2.35;;;;;;;;;;4918163;29;20040;-85
2022/05/18 16:21:13;;;;;;;3.40;2.03;;;;;;;;;;4918329;29;20050;-85
2022/05/18 16:23:57;;;;;;;10.07;2.80;;;;;;;;;;4918481;29;20148;-85
2022/05/18 16:26:34;;;;;;;5.80;2.15;;;;;;;;;;4918172;29;20107;-83
2022/05/18 16:29:08;;;;;;;4.65;2.05;;;;;;;;;;4919363;29;20091;-83
2022/05/18 16:31:37;;;;;;;8.98;3.13;;;;;;;;;;4921552;29;20052;-83
2022/05/18 16:34:05;;;;;;;9.38;2.60;;;;;;;;;;4931396;29;20046;-83